sensor_id;sensor_type;location;lat;lon;timestamp;P1;durP1;ratioP1;P2;durP2;ratioP2
7158;SDS011;63175;52.374;13.132;2023-02-15T00:01:21;17.30;;;10.97;;
7158;SDS011;63175;52.374;13.132;2023-02-15T00:03:48;16.80;;;11.43;;
7158;SDS011;63175;52.374;13.132;2023-02-15T00:06:15;19.87;;;13.30;;
7158;SDS011;63175;52.374;13.132;2023-02-15T00:08:42;23.03;;;13.57;;
7158;SDS011;63175;52.374;13.132;2023-02-15T00:11:10;19.77;;;13.10;;
7158;SDS011;63175;52.374;13.132;2023-02-15T00:13:38;17.93;;;11.93;;
7158;SDS011;63175;52.374;13.132;2023-02-15T00:16:07;18.70;;;12.40;;
7158;SDS011;63175;52.374;13.132;2023-02-15T00:18:37;16.30;;;11.00;;
7158;SDS011;63175;52.374;13.132;2023-02-15T00:21:04;18.43;;;11.30;;
7158;SDS011;63175;52.374;13.132;2023-02-15T00:23:32;18.53;;;11.93;;
7158;SDS011;63175;52.374;13.132;2023-02-15T00:26:03;17.50;;;10.80;;
7158;SDS011;63175;52.374;13.132;2023-02-15T00:28:31;19.10;;;11.30;;
7158;SDS011;63175;52.374;13.132;2023-02-15T00:31:02;15.07;;;10.33;;
7158;SDS011;63175;52.374;13.132;2023-02-15T00:33:30;19.33;;;11.47;;
7158;SDS011;63175;52.374;13.132;2023-02-15T00:35:58;15.63;;;11.37;;
7158;SDS011;63175;52.374;13.132;2023-02-15T00:38:25;19.43;;;11.70;;
7158;SDS011;63175;52.374;13.132;2023-02-15T00:40:53;17.40;;;11.80;;
7158;SDS011;63175;52.374;13.132;2023-02-15T00:43:20;23.10;;;14.40;;
7158;SDS011;63175;52.374;13.132;2023-02-15T00:45:47;25.40;;;14.40;;
7158;SDS011;63175;52.374;13.132;2023-02-15T00:48:13;29.33;;;15.50;;
7158;SDS011;63175;52.374;13.132;2023-02-15T00:50:40;23.73;;;14.10;;
7158;SDS011;63175;52.374;13.132;2023-02-15T00:53:09;19.57;;;13.07;;
7158;SDS011;63175;52.374;13.132;2023-02-15T00:55:36;22.77;;;14.80;;
7158;SDS011;63175;52.374;13.132;2023-02-15T00:58:04;22.50;;;14.33;;
7158;SDS011;63175;52.374;13.132;2023-02-15T01:00:31;24.43;;;14.30;;
7158;SDS011;63175;52.374;13.132;2023-02-15T01:02:58;24.77;;;13.57;;
7158;SDS011;63175;52.374;13.132;2023-02-15T01:05:25;21.53;;;12.97;;
7158;SDS011;63175;52.374;13.132;2023-02-15T01:07:52;19.73;;;13.10;;
7158;SDS011;63175;52.374;13.132;2023-02-15T01:10:21;20.70;;;13.47;;
7158;SDS011;63175;52.374;13.132;2023-02-15T01:12:47;21.43;;;12.80;;
7158;SDS011;63175;52.374;13.132;2023-02-15T01:15:15;19.63;;;12.10;;
7158;SDS011;63175;52.374;13.132;2023-02-15T01:17:42;18.90;;;12.93;;
7158;SDS011;63175;52.374;13.132;2023-02-15T01:20:16;21.90;;;12.30;;
7158;SDS011;63175;52.374;13.132;2023-02-15T01:22:43;18.00;;;11.80;;
7158;SDS011;63175;52.374;13.132;2023-02-15T01:25:10;19.30;;;12.27;;
7158;SDS011;63175;52.374;13.132;2023-02-15T01:27:38;21.70;;;12.73;;
7158;SDS011;63175;52.374;13.132;2023-02-15T01:30:05;19.63;;;12.00;;
7158;SDS011;63175;52.374;13.132;2023-02-15T01:32:33;21.50;;;12.47;;
7158;SDS011;63175;52.374;13.132;2023-02-15T01:35:00;19.00;;;12.43;;
7158;SDS011;63175;52.374;13.132;2023-02-15T01:37:29;17.23;;;11.83;;
7158;SDS011;63175;52.374;13.132;2023-02-15T01:39:56;22.13;;;13.60;;
7158;SDS011;63175;52.374;13.132;2023-02-15T01:42:25;18.80;;;12.37;;
7158;SDS011;63175;52.374;13.132;2023-02-15T01:44:54;19.90;;;11.90;;
7158;SDS011;63175;52.374;13.132;2023-02-15T01:47:23;20.07;;;12.90;;
7158;SDS011;63175;52.374;13.132;2023-02-15T01:49:59;21.33;;;12.70;;
7158;SDS011;63175;52.374;13.132;2023-02-15T01:52:29;18.90;;;12.53;;
7158;SDS011;63175;52.374;13.132;2023-02-15T01:54:56;20.23;;;12.27;;
7158;SDS011;63175;52.374;13.132;2023-02-15T01:57:24;18.90;;;13.13;;
7158;SDS011;63175;52.374;13.132;2023-02-15T01:59:55;20.93;;;13.00;;
7158;SDS011;63175;52.374;13.132;2023-02-15T02:02:26;20.27;;;11.47;;
7158;SDS011;63175;52.374;13.132;2023-02-15T02:04:54;20.27;;;12.40;;
7158;SDS011;63175;52.374;13.132;2023-02-15T02:07:26;19.57;;;12.30;;
7158;SDS011;63175;52.374;13.132;2023-02-15T02:09:58;21.33;;;13.27;;
7158;SDS011;63175;52.374;13.132;2023-02-15T02:12:25;22.80;;;11.50;;
7158;SDS011;63175;52.374;13.132;2023-02-15T02:14:52;18.50;;;10.97;;
7158;SDS011;63175;52.374;13.132;2023-02-15T02:17:25;16.67;;;10.83;;
7158;SDS011;63175;52.374;13.132;2023-02-15T02:26:03;16.50;;;11.17;;
7158;SDS011;63175;52.374;13.132;2023-02-15T02:32:16;20.10;;;12.67;;
7158;SDS011;63175;52.374;13.132;2023-02-15T02:35:03;20.73;;;11.67;;
7158;SDS011;63175;52.374;13.132;2023-02-15T02:37:42;17.17;;;11.00;;
7158;SDS011;63175;52.374;13.132;2023-02-15T02:40:19;20.60;;;11.33;;
7158;SDS011;63175;52.374;13.132;2023-02-15T02:42:54;21.43;;;11.93;;
7158;SDS011;63175;52.374;13.132;2023-02-15T02:45:28;18.87;;;11.53;;
7158;SDS011;63175;52.374;13.132;2023-02-15T02:47:59;19.27;;;12.57;;
7158;SDS011;63175;52.374;13.132;2023-02-15T02:50:31;18.33;;;13.13;;
7158;SDS011;63175;52.374;13.132;2023-02-15T02:52:58;22.53;;;12.30;;
7158;SDS011;63175;52.374;13.132;2023-02-15T02:55:27;18.27;;;11.60;;
7158;SDS011;63175;52.374;13.132;2023-02-15T02:57:57;18.30;;;11.97;;
7158;SDS011;63175;52.374;13.132;2023-02-15T03:00:31;18.07;;;12.37;;
7158;SDS011;63175;52.374;13.132;2023-02-15T03:03:02;17.00;;;11.40;;
7158;SDS011;63175;52.374;13.132;2023-02-15T03:05:34;18.30;;;11.70;;
7158;SDS011;63175;52.374;13.132;2023-02-15T03:08:03;18.70;;;10.73;;
7158;SDS011;63175;52.374;13.132;2023-02-15T03:10:35;19.33;;;11.07;;
7158;SDS011;63175;52.374;13.132;2023-02-15T03:13:03;16.47;;;10.37;;
7158;SDS011;63175;52.374;13.132;2023-02-15T03:15:30;15.10;;;10.40;;
7158;SDS011;63175;52.374;13.132;2023-02-15T03:18:14;13.60;;;8.30;;
7158;SDS011;63175;52.374;13.132;2023-02-15T03:20:45;12.27;;;9.30;;
7158;SDS011;63175;52.374;13.132;2023-02-15T03:23:15;15.00;;;9.60;;
7158;SDS011;63175;52.374;13.132;2023-02-15T03:25:45;13.77;;;8.90;;
7158;SDS011;63175;52.374;13.132;2023-02-15T03:28:18;12.87;;;9.20;;
7158;SDS011;63175;52.374;13.132;2023-02-15T03:30:59;13.87;;;9.90;;
7158;SDS011;63175;52.374;13.132;2023-02-15T03:33:29;18.40;;;10.23;;
7158;SDS011;63175;52.374;13.132;2023-02-15T03:35:59;15.93;;;9.90;;
7158;SDS011;63175;52.374;13.132;2023-02-15T03:38:33;14.77;;;10.67;;
7158;SDS011;63175;52.374;13.132;2023-02-15T03:41:03;15.40;;;11.20;;
7158;SDS011;63175;52.374;13.132;2023-02-15T03:43:40;21.80;;;11.30;;
7158;SDS011;63175;52.374;13.132;2023-02-15T03:46:12;20.70;;;11.57;;
7158;SDS011;63175;52.374;13.132;2023-02-15T03:48:44;19.43;;;11.43;;
7158;SDS011;63175;52.374;13.132;2023-02-15T03:51:18;19.27;;;12.23;;
7158;SDS011;63175;52.374;13.132;2023-02-15T03:54:01;21.10;;;13.33;;
7158;SDS011;63175;52.374;13.132;2023-02-15T03:56:31;17.03;;;11.37;;
7158;SDS011;63175;52.374;13.132;2023-02-15T03:59:00;22.53;;;12.63;;
7158;SDS011;63175;52.374;13.132;2023-02-15T04:01:47;24.23;;;13.57;;
7158;SDS011;63175;52.374;13.132;2023-02-15T04:04:32;24.23;;;13.30;;
7158;SDS011;63175;52.374;13.132;2023-02-15T04:07:03;23.67;;;15.27;;
7158;SDS011;63175;52.374;13.132;2023-02-15T04:09:30;22.53;;;14.63;;
7158;SDS011;63175;52.374;13.132;2023-02-15T04:12:15;28.63;;;15.00;;
7158;SDS011;63175;52.374;13.132;2023-02-15T04:14:42;21.93;;;12.80;;
7158;SDS011;63175;52.374;13.132;2023-02-15T04:17:26;18.33;;;11.80;;
7158;SDS011;63175;52.374;13.132;2023-02-15T04:19:53;18.90;;;11.93;;
7158;SDS011;63175;52.374;13.132;2023-02-15T04:22:39;20.87;;;12.07;;
7158;SDS011;63175;52.374;13.132;2023-02-15T04:25:23;26.60;;;14.37;;
7158;SDS011;63175;52.374;13.132;2023-02-15T04:27:51;19.77;;;12.40;;
7158;SDS011;63175;52.374;13.132;2023-02-15T04:30:20;16.80;;;10.57;;
7158;SDS011;63175;52.374;13.132;2023-02-15T04:32:48;18.37;;;12.20;;
7158;SDS011;63175;52.374;13.132;2023-02-15T04:35:16;17.77;;;11.60;;
7158;SDS011;63175;52.374;13.132;2023-02-15T04:37:44;16.50;;;10.77;;
7158;SDS011;63175;52.374;13.132;2023-02-15T04:40:12;17.43;;;10.57;;
7158;SDS011;63175;52.374;13.132;2023-02-15T04:42:40;17.40;;;10.93;;
7158;SDS011;63175;52.374;13.132;2023-02-15T04:45:08;15.27;;;10.73;;
7158;SDS011;63175;52.374;13.132;2023-02-15T04:47:35;21.50;;;11.90;;
7158;SDS011;63175;52.374;13.132;2023-02-15T04:50:02;25.47;;;15.17;;
7158;SDS011;63175;52.374;13.132;2023-02-15T04:52:29;29.60;;;16.47;;
7158;SDS011;63175;52.374;13.132;2023-02-15T04:54:57;33.27;;;17.30;;
7158;SDS011;63175;52.374;13.132;2023-02-15T04:57:24;40.40;;;20.67;;
7158;SDS011;63175;52.374;13.132;2023-02-15T04:59:51;32.67;;;17.40;;
7158;SDS011;63175;52.374;13.132;2023-02-15T05:02:18;40.60;;;21.00;;
7158;SDS011;63175;52.374;13.132;2023-02-15T05:04:45;36.80;;;20.43;;
7158;SDS011;63175;52.374;13.132;2023-02-15T05:07:12;38.97;;;19.93;;
7158;SDS011;63175;52.374;13.132;2023-02-15T05:09:39;37.67;;;19.70;;
7158;SDS011;63175;52.374;13.132;2023-02-15T05:12:07;36.07;;;20.43;;
7158;SDS011;63175;52.374;13.132;2023-02-15T05:14:34;31.87;;;18.43;;
7158;SDS011;63175;52.374;13.132;2023-02-15T05:17:01;32.60;;;18.07;;
7158;SDS011;63175;52.374;13.132;2023-02-15T05:19:30;30.63;;;17.17;;
7158;SDS011;63175;52.374;13.132;2023-02-15T05:21:57;32.70;;;18.00;;
7158;SDS011;63175;52.374;13.132;2023-02-15T05:24:24;33.17;;;17.57;;
7158;SDS011;63175;52.374;13.132;2023-02-15T05:27:10;30.80;;;17.87;;
7158;SDS011;63175;52.374;13.132;2023-02-15T05:29:55;33.20;;;18.83;;
7158;SDS011;63175;52.374;13.132;2023-02-15T05:32:22;32.10;;;17.10;;
7158;SDS011;63175;52.374;13.132;2023-02-15T05:34:49;29.50;;;16.87;;
7158;SDS011;63175;52.374;13.132;2023-02-15T05:37:16;29.73;;;16.40;;
7158;SDS011;63175;52.374;13.132;2023-02-15T05:39:43;26.93;;;16.43;;
7158;SDS011;63175;52.374;13.132;2023-02-15T05:42:11;27.67;;;17.23;;
7158;SDS011;63175;52.374;13.132;2023-02-15T05:44:38;31.20;;;18.10;;
7158;SDS011;63175;52.374;13.132;2023-02-15T05:47:04;26.70;;;16.13;;
7158;SDS011;63175;52.374;13.132;2023-02-15T05:49:32;29.90;;;17.30;;
7158;SDS011;63175;52.374;13.132;2023-02-15T05:51:59;28.03;;;16.00;;
7158;SDS011;63175;52.374;13.132;2023-02-15T05:54:26;28.87;;;16.90;;
7158;SDS011;63175;52.374;13.132;2023-02-15T05:56:54;25.80;;;15.90;;
7158;SDS011;63175;52.374;13.132;2023-02-15T05:59:22;35.53;;;18.27;;
7158;SDS011;63175;52.374;13.132;2023-02-15T06:01:49;28.43;;;16.00;;
7158;SDS011;63175;52.374;13.132;2023-02-15T06:04:16;31.90;;;18.33;;
7158;SDS011;63175;52.374;13.132;2023-02-15T06:06:42;31.03;;;16.30;;
7158;SDS011;63175;52.374;13.132;2023-02-15T06:09:10;27.93;;;18.17;;
7158;SDS011;63175;52.374;13.132;2023-02-15T06:11:37;30.40;;;16.97;;
7158;SDS011;63175;52.374;13.132;2023-02-15T06:14:04;31.30;;;17.57;;
7158;SDS011;63175;52.374;13.132;2023-02-15T06:16:32;29.63;;;17.40;;
7158;SDS011;63175;52.374;13.132;2023-02-15T06:18:59;28.77;;;16.33;;
7158;SDS011;63175;52.374;13.132;2023-02-15T06:21:26;32.73;;;17.00;;
7158;SDS011;63175;52.374;13.132;2023-02-15T06:23:53;30.00;;;17.83;;
7158;SDS011;63175;52.374;13.132;2023-02-15T06:26:20;29.67;;;17.43;;
7158;SDS011;63175;52.374;13.132;2023-02-15T06:28:47;26.33;;;15.60;;
7158;SDS011;63175;52.374;13.132;2023-02-15T06:31:14;30.27;;;15.83;;
7158;SDS011;63175;52.374;13.132;2023-02-15T06:33:42;27.57;;;15.40;;
7158;SDS011;63175;52.374;13.132;2023-02-15T06:36:09;32.20;;;15.80;;
7158;SDS011;63175;52.374;13.132;2023-02-15T06:38:37;27.13;;;15.10;;
7158;SDS011;63175;52.374;13.132;2023-02-15T06:41:04;33.63;;;17.90;;
7158;SDS011;63175;52.374;13.132;2023-02-15T06:43:31;29.93;;;16.17;;
7158;SDS011;63175;52.374;13.132;2023-02-15T06:45:59;29.70;;;16.83;;
7158;SDS011;63175;52.374;13.132;2023-02-15T06:48:26;30.40;;;16.13;;
7158;SDS011;63175;52.374;13.132;2023-02-15T06:50:54;25.67;;;14.23;;
7158;SDS011;63175;52.374;13.132;2023-02-15T06:53:21;29.87;;;16.03;;
7158;SDS011;63175;52.374;13.132;2023-02-15T06:55:48;31.27;;;16.53;;
7158;SDS011;63175;52.374;13.132;2023-02-15T06:58:14;30.27;;;16.70;;
7158;SDS011;63175;52.374;13.132;2023-02-15T07:00:41;32.60;;;15.90;;
7158;SDS011;63175;52.374;13.132;2023-02-15T07:03:08;30.30;;;17.20;;
7158;SDS011;63175;52.374;13.132;2023-02-15T07:05:35;25.43;;;15.33;;
7158;SDS011;63175;52.374;13.132;2023-02-15T07:08:03;31.20;;;15.20;;
7158;SDS011;63175;52.374;13.132;2023-02-15T07:10:30;22.83;;;15.20;;
7158;SDS011;63175;52.374;13.132;2023-02-15T07:12:57;24.93;;;13.80;;
7158;SDS011;63175;52.374;13.132;2023-02-15T07:15:23;24.37;;;14.47;;
7158;SDS011;63175;52.374;13.132;2023-02-15T07:17:50;24.27;;;14.77;;
7158;SDS011;63175;52.374;13.132;2023-02-15T07:20:18;28.53;;;15.20;;
7158;SDS011;63175;52.374;13.132;2023-02-15T07:22:46;26.80;;;15.13;;
7158;SDS011;63175;52.374;13.132;2023-02-15T07:25:15;27.80;;;16.70;;
7158;SDS011;63175;52.374;13.132;2023-02-15T07:27:43;26.43;;;16.87;;
7158;SDS011;63175;52.374;13.132;2023-02-15T07:30:11;29.63;;;17.70;;
7158;SDS011;63175;52.374;13.132;2023-02-15T07:32:41;27.07;;;15.87;;
7158;SDS011;63175;52.374;13.132;2023-02-15T07:35:22;28.53;;;17.27;;
7158;SDS011;63175;52.374;13.132;2023-02-15T07:37:49;30.33;;;16.17;;
7158;SDS011;63175;52.374;13.132;2023-02-15T07:40:19;25.97;;;14.53;;
7158;SDS011;63175;52.374;13.132;2023-02-15T07:42:48;26.80;;;16.27;;
7158;SDS011;63175;52.374;13.132;2023-02-15T07:45:16;30.17;;;15.37;;
7158;SDS011;63175;52.374;13.132;2023-02-15T07:47:43;28.10;;;14.70;;
7158;SDS011;63175;52.374;13.132;2023-02-15T07:50:10;28.17;;;16.17;;
7158;SDS011;63175;52.374;13.132;2023-02-15T07:52:37;27.30;;;15.97;;
7158;SDS011;63175;52.374;13.132;2023-02-15T07:55:04;26.33;;;14.77;;
7158;SDS011;63175;52.374;13.132;2023-02-15T07:57:33;34.20;;;17.77;;
7158;SDS011;63175;52.374;13.132;2023-02-15T07:59:59;31.97;;;16.40;;
7158;SDS011;63175;52.374;13.132;2023-02-15T08:02:26;26.43;;;16.20;;
7158;SDS011;63175;52.374;13.132;2023-02-15T08:04:55;29.20;;;17.07;;
7158;SDS011;63175;52.374;13.132;2023-02-15T08:07:22;27.83;;;16.93;;
7158;SDS011;63175;52.374;13.132;2023-02-15T08:09:48;24.30;;;15.27;;
7158;SDS011;63175;52.374;13.132;2023-02-15T08:12:15;23.20;;;15.00;;
7158;SDS011;63175;52.374;13.132;2023-02-15T08:14:43;26.87;;;15.50;;
7158;SDS011;63175;52.374;13.132;2023-02-15T08:17:10;26.87;;;15.63;;
7158;SDS011;63175;52.374;13.132;2023-02-15T08:19:37;26.47;;;16.77;;
7158;SDS011;63175;52.374;13.132;2023-02-15T08:22:05;23.50;;;14.87;;
7158;SDS011;63175;52.374;13.132;2023-02-15T08:24:33;23.23;;;14.23;;
7158;SDS011;63175;52.374;13.132;2023-02-15T08:27:02;20.57;;;13.57;;
7158;SDS011;63175;52.374;13.132;2023-02-15T08:29:30;28.87;;;16.87;;
7158;SDS011;63175;52.374;13.132;2023-02-15T08:31:59;25.50;;;16.20;;
7158;SDS011;63175;52.374;13.132;2023-02-15T08:34:28;27.77;;;14.77;;
7158;SDS011;63175;52.374;13.132;2023-02-15T08:36:56;26.80;;;15.40;;
7158;SDS011;63175;52.374;13.132;2023-02-15T08:39:23;30.47;;;16.57;;
7158;SDS011;63175;52.374;13.132;2023-02-15T08:41:50;27.07;;;16.30;;
7158;SDS011;63175;52.374;13.132;2023-02-15T08:44:17;23.27;;;15.20;;
7158;SDS011;63175;52.374;13.132;2023-02-15T08:46:46;25.63;;;16.13;;
7158;SDS011;63175;52.374;13.132;2023-02-15T08:49:16;26.87;;;16.93;;
7158;SDS011;63175;52.374;13.132;2023-02-15T08:51:44;27.57;;;16.73;;
7158;SDS011;63175;52.374;13.132;2023-02-15T08:54:12;27.97;;;16.40;;
7158;SDS011;63175;52.374;13.132;2023-02-15T08:56:41;29.03;;;16.43;;
7158;SDS011;63175;52.374;13.132;2023-02-15T08:59:11;26.10;;;16.23;;
7158;SDS011;63175;52.374;13.132;2023-02-15T09:01:40;28.00;;;16.40;;
7158;SDS011;63175;52.374;13.132;2023-02-15T09:04:07;27.33;;;16.50;;
7158;SDS011;63175;52.374;13.132;2023-02-15T09:06:36;32.53;;;17.43;;
7158;SDS011;63175;52.374;13.132;2023-02-15T09:09:04;23.23;;;14.27;;
7158;SDS011;63175;52.374;13.132;2023-02-15T09:11:33;26.17;;;16.97;;
7158;SDS011;63175;52.374;13.132;2023-02-15T09:14:02;28.60;;;17.17;;
7158;SDS011;63175;52.374;13.132;2023-02-15T09:16:31;25.73;;;16.90;;
7158;SDS011;63175;52.374;13.132;2023-02-15T09:19:00;27.53;;;16.83;;
7158;SDS011;63175;52.374;13.132;2023-02-15T09:21:29;26.17;;;16.30;;
7158;SDS011;63175;52.374;13.132;2023-02-15T09:23:59;28.80;;;16.80;;
7158;SDS011;63175;52.374;13.132;2023-02-15T09:26:27;27.93;;;17.23;;
7158;SDS011;63175;52.374;13.132;2023-02-15T09:28:56;27.37;;;16.87;;
7158;SDS011;63175;52.374;13.132;2023-02-15T09:31:26;35.23;;;19.50;;
7158;SDS011;63175;52.374;13.132;2023-02-15T09:33:54;29.80;;;17.87;;
7158;SDS011;63175;52.374;13.132;2023-02-15T09:36:22;28.60;;;17.83;;
7158;SDS011;63175;52.374;13.132;2023-02-15T09:38:52;29.30;;;18.70;;
7158;SDS011;63175;52.374;13.132;2023-02-15T09:41:31;28.53;;;16.17;;
7158;SDS011;63175;52.374;13.132;2023-02-15T09:44:11;29.10;;;17.97;;
7158;SDS011;63175;52.374;13.132;2023-02-15T09:46:56;37.10;;;20.17;;
7158;SDS011;63175;52.374;13.132;2023-02-15T09:49:48;31.93;;;18.67;;
7158;SDS011;63175;52.374;13.132;2023-02-15T09:52:31;36.53;;;17.77;;
7158;SDS011;63175;52.374;13.132;2023-02-15T09:55:09;31.50;;;19.37;;
7158;SDS011;63175;52.374;13.132;2023-02-15T09:57:59;28.93;;;17.87;;
7158;SDS011;63175;52.374;13.132;2023-02-15T10:00:36;29.10;;;18.20;;
7158;SDS011;63175;52.374;13.132;2023-02-15T10:03:13;29.20;;;16.30;;
7158;SDS011;63175;52.374;13.132;2023-02-15T10:06:05;29.83;;;18.40;;
7158;SDS011;63175;52.374;13.132;2023-02-15T10:11:49;30.57;;;18.03;;
7158;SDS011;63175;52.374;13.132;2023-02-15T10:14:54;31.43;;;20.43;;
7158;SDS011;63175;52.374;13.132;2023-02-15T10:17:42;29.83;;;18.70;;
7158;SDS011;63175;52.374;13.132;2023-02-15T10:20:21;35.83;;;19.73;;
7158;SDS011;63175;52.374;13.132;2023-02-15T10:23:00;28.73;;;18.33;;
7158;SDS011;63175;52.374;13.132;2023-02-15T10:25:40;34.90;;;20.83;;
7158;SDS011;63175;52.374;13.132;2023-02-15T10:28:15;27.80;;;18.33;;
7158;SDS011;63175;52.374;13.132;2023-02-15T10:30:46;29.70;;;18.87;;
7158;SDS011;63175;52.374;13.132;2023-02-15T10:33:30;30.80;;;18.03;;
7158;SDS011;63175;52.374;13.132;2023-02-15T10:36:06;32.97;;;19.90;;
7158;SDS011;63175;52.374;13.132;2023-02-15T10:38:44;35.23;;;19.97;;
7158;SDS011;63175;52.374;13.132;2023-02-15T10:41:23;28.67;;;19.80;;
7158;SDS011;63175;52.374;13.132;2023-02-15T10:44:05;29.47;;;19.37;;
7158;SDS011;63175;52.374;13.132;2023-02-15T10:46:55;25.07;;;17.90;;
7158;SDS011;63175;52.374;13.132;2023-02-15T10:49:40;29.73;;;19.67;;
7158;SDS011;63175;52.374;13.132;2023-02-15T10:52:19;30.87;;;20.03;;
7158;SDS011;63175;52.374;13.132;2023-02-15T10:54:56;26.37;;;19.10;;
7158;SDS011;63175;52.374;13.132;2023-02-15T10:57:35;33.10;;;21.30;;
7158;SDS011;63175;52.374;13.132;2023-02-15T11:00:09;27.30;;;19.07;;
7158;SDS011;63175;52.374;13.132;2023-02-15T11:02:51;25.47;;;18.80;;
7158;SDS011;63175;52.374;13.132;2023-02-15T11:05:41;30.33;;;20.30;;
7158;SDS011;63175;52.374;13.132;2023-02-15T11:08:15;24.40;;;18.67;;
7158;SDS011;63175;52.374;13.132;2023-02-15T11:10:43;26.83;;;19.40;;
7158;SDS011;63175;52.374;13.132;2023-02-15T11:13:14;25.60;;;19.10;;
7158;SDS011;63175;52.374;13.132;2023-02-15T11:15:43;21.27;;;17.13;;
7158;SDS011;63175;52.374;13.132;2023-02-15T11:18:14;25.63;;;18.90;;
7158;SDS011;63175;52.374;13.132;2023-02-15T11:20:46;23.30;;;18.10;;
7158;SDS011;63175;52.374;13.132;2023-02-15T11:23:19;22.07;;;18.43;;
7158;SDS011;63175;52.374;13.132;2023-02-15T11:25:51;27.50;;;19.30;;
7158;SDS011;63175;52.374;13.132;2023-02-15T11:28:22;20.63;;;16.10;;
7158;SDS011;63175;52.374;13.132;2023-02-15T11:30:54;20.03;;;17.60;;
7158;SDS011;63175;52.374;13.132;2023-02-15T11:33:24;17.60;;;15.67;;
7158;SDS011;63175;52.374;13.132;2023-02-15T11:35:57;18.83;;;16.93;;
7158;SDS011;63175;52.374;13.132;2023-02-15T11:38:31;16.90;;;15.10;;
7158;SDS011;63175;52.374;13.132;2023-02-15T11:41:01;17.90;;;14.57;;
7158;SDS011;63175;52.374;13.132;2023-02-15T11:43:31;17.30;;;15.37;;
7158;SDS011;63175;52.374;13.132;2023-02-15T11:46:02;14.80;;;13.30;;
7158;SDS011;63175;52.374;13.132;2023-02-15T11:48:31;15.50;;;13.90;;
7158;SDS011;63175;52.374;13.132;2023-02-15T11:50:59;16.63;;;15.03;;
7158;SDS011;63175;52.374;13.132;2023-02-15T11:53:28;16.00;;;14.20;;
7158;SDS011;63175;52.374;13.132;2023-02-15T11:55:58;17.13;;;14.63;;
7158;SDS011;63175;52.374;13.132;2023-02-15T11:58:28;16.83;;;15.13;;
7158;SDS011;63175;52.374;13.132;2023-02-15T12:01:00;16.60;;;14.17;;
7158;SDS011;63175;52.374;13.132;2023-02-15T12:03:39;14.53;;;12.83;;
7158;SDS011;63175;52.374;13.132;2023-02-15T12:06:12;13.30;;;12.00;;
7158;SDS011;63175;52.374;13.132;2023-02-15T12:08:46;14.60;;;13.10;;
7158;SDS011;63175;52.374;13.132;2023-02-15T12:11:19;14.63;;;12.33;;
7158;SDS011;63175;52.374;13.132;2023-02-15T12:13:54;13.27;;;11.87;;
7158;SDS011;63175;52.374;13.132;2023-02-15T12:16:22;14.50;;;13.00;;
7158;SDS011;63175;52.374;13.132;2023-02-15T12:18:51;13.33;;;12.03;;
7158;SDS011;63175;52.374;13.132;2023-02-15T12:21:24;12.90;;;11.60;;
7158;SDS011;63175;52.374;13.132;2023-02-15T12:23:54;13.87;;;10.80;;
7158;SDS011;63175;52.374;13.132;2023-02-15T12:26:24;12.90;;;11.60;;
7158;SDS011;63175;52.374;13.132;2023-02-15T12:28:52;13.50;;;12.20;;
7158;SDS011;63175;52.374;13.132;2023-02-15T12:31:27;12.93;;;11.63;;
7158;SDS011;63175;52.374;13.132;2023-02-15T12:33:59;14.40;;;10.30;;
7158;SDS011;63175;52.374;13.132;2023-02-15T12:36:29;10.70;;;9.70;;
7158;SDS011;63175;52.374;13.132;2023-02-15T12:39:02;9.60;;;8.60;;
7158;SDS011;63175;52.374;13.132;2023-02-15T12:41:32;10.30;;;9.20;;
7158;SDS011;63175;52.374;13.132;2023-02-15T12:44:03;9.50;;;8.60;;
7158;SDS011;63175;52.374;13.132;2023-02-15T12:46:33;11.03;;;9.93;;
7158;SDS011;63175;52.374;13.132;2023-02-15T12:49:06;13.07;;;10.00;;
7158;SDS011;63175;52.374;13.132;2023-02-15T12:51:45;10.37;;;9.30;;
7158;SDS011;63175;52.374;13.132;2023-02-15T12:54:26;9.20;;;8.30;;
7158;SDS011;63175;52.374;13.132;2023-02-15T12:56:56;12.17;;;10.27;;
7158;SDS011;63175;52.374;13.132;2023-02-15T12:59:23;9.00;;;8.10;;
7158;SDS011;63175;52.374;13.132;2023-02-15T13:01:50;14.30;;;10.50;;
7158;SDS011;63175;52.374;13.132;2023-02-15T13:04:22;11.03;;;9.77;;
7158;SDS011;63175;52.374;13.132;2023-02-15T13:06:51;12.27;;;9.57;;
7158;SDS011;63175;52.374;13.132;2023-02-15T13:09:20;9.40;;;8.40;;
7158;SDS011;63175;52.374;13.132;2023-02-15T13:11:52;9.97;;;8.33;;
7158;SDS011;63175;52.374;13.132;2023-02-15T13:14:20;8.90;;;7.80;;
7158;SDS011;63175;52.374;13.132;2023-02-15T13:16:52;12.53;;;9.00;;
7158;SDS011;63175;52.374;13.132;2023-02-15T13:19:26;12.30;;;8.87;;
7158;SDS011;63175;52.374;13.132;2023-02-15T13:21:57;8.40;;;7.50;;
7158;SDS011;63175;52.374;13.132;2023-02-15T13:24:29;11.77;;;9.40;;
7158;SDS011;63175;52.374;13.132;2023-02-15T13:27:00;10.17;;;9.10;;
7158;SDS011;63175;52.374;13.132;2023-02-15T13:29:28;13.43;;;8.70;;
7158;SDS011;63175;52.374;13.132;2023-02-15T13:32:03;11.40;;;8.70;;
7158;SDS011;63175;52.374;13.132;2023-02-15T13:34:36;10.90;;;8.77;;
7158;SDS011;63175;52.374;13.132;2023-02-15T13:37:05;9.40;;;8.40;;
7158;SDS011;63175;52.374;13.132;2023-02-15T13:39:42;11.73;;;7.60;;
7158;SDS011;63175;52.374;13.132;2023-02-15T13:42:15;10.50;;;7.60;;
7158;SDS011;63175;52.374;13.132;2023-02-15T13:44:51;13.17;;;9.17;;
7158;SDS011;63175;52.374;13.132;2023-02-15T13:47:30;9.40;;;8.23;;
7158;SDS011;63175;52.374;13.132;2023-02-15T13:50:08;9.40;;;7.57;;
7158;SDS011;63175;52.374;13.132;2023-02-15T13:52:47;8.50;;;7.03;;
7158;SDS011;63175;52.374;13.132;2023-02-15T13:55:28;10.33;;;7.50;;
7158;SDS011;63175;52.374;13.132;2023-02-15T13:58:09;8.93;;;8.00;;
7158;SDS011;63175;52.374;13.132;2023-02-15T14:00:56;10.40;;;7.80;;
7158;SDS011;63175;52.374;13.132;2023-02-15T14:03:40;9.50;;;7.97;;
7158;SDS011;63175;52.374;13.132;2023-02-15T14:06:27;9.17;;;7.90;;
7158;SDS011;63175;52.374;13.132;2023-02-15T14:09:14;9.37;;;8.37;;
7158;SDS011;63175;52.374;13.132;2023-02-15T14:11:55;13.27;;;9.60;;
7158;SDS011;63175;52.374;13.132;2023-02-15T14:14:44;10.20;;;7.73;;
7158;SDS011;63175;52.374;13.132;2023-02-15T14:17:27;9.63;;;7.83;;
7158;SDS011;63175;52.374;13.132;2023-02-15T14:20:07;8.77;;;7.80;;
7158;SDS011;63175;52.374;13.132;2023-02-15T14:22:44;9.00;;;7.83;;
7158;SDS011;63175;52.374;13.132;2023-02-15T14:25:17;11.97;;;8.07;;
7158;SDS011;63175;52.374;13.132;2023-02-15T14:27:54;8.73;;;7.57;;
7158;SDS011;63175;52.374;13.132;2023-02-15T14:30:30;8.07;;;7.03;;
7158;SDS011;63175;52.374;13.132;2023-02-15T14:33:01;10.93;;;8.10;;
7158;SDS011;63175;52.374;13.132;2023-02-15T14:35:33;13.43;;;9.53;;
7158;SDS011;63175;52.374;13.132;2023-02-15T14:38:03;12.00;;;9.60;;
7158;SDS011;63175;52.374;13.132;2023-02-15T14:40:38;9.87;;;8.13;;
7158;SDS011;63175;52.374;13.132;2023-02-15T14:43:34;9.23;;;8.20;;
7158;SDS011;63175;52.374;13.132;2023-02-15T14:46:18;17.93;;;9.43;;
7158;SDS011;63175;52.374;13.132;2023-02-15T14:48:51;15.83;;;10.37;;
7158;SDS011;63175;52.374;13.132;2023-02-15T14:57:23;11.53;;;8.50;;
7158;SDS011;63175;52.374;13.132;2023-02-15T14:59:56;12.63;;;8.83;;
7158;SDS011;63175;52.374;13.132;2023-02-15T15:02:26;13.17;;;8.90;;
7158;SDS011;63175;52.374;13.132;2023-02-15T15:05:02;12.57;;;9.20;;
7158;SDS011;63175;52.374;13.132;2023-02-15T15:07:38;11.30;;;8.57;;